sensor_id;sensor_type;location;lat;lon;timestamp;pressure;altitude;pressure_sealevel;temperature;humidity
39739;BME280;25422;48.286;8.484;2023-04-23T00:01:57;93527.00;;;10.21;100.00
39739;BME280;25422;48.286;8.484;2023-04-23T00:04:25;93524.22;;;10.22;100.00
39739;BME280;25422;48.286;8.484;2023-04-23T00:06:51;93518.19;;;10.22;100.00
39739;BME280;25422;48.286;8.484;2023-04-23T00:09:17;93524.59;;;10.19;100.00
39739;BME280;25422;48.286;8.484;2023-04-23T00:11:43;93522.06;;;10.11;100.00
39739;BME280;25422;48.286;8.484;2023-04-23T00:14:08;93530.53;;;10.13;100.00
39739;BME280;25422;48.286;8.484;2023-04-23T00:16:34;93523.53;;;10.13;100.00
39739;BME280;25422;48.286;8.484;2023-04-23T00:18:59;93524.88;;;10.09;100.00
39739;BME280;25422;48.286;8.484;2023-04-23T00:21:25;93522.97;;;10.03;100.00
39739;BME280;25422;48.286;8.484;2023-04-23T00:23:51;93527.50;;;9.94;100.00
39739;BME280;25422;48.286;8.484;2023-04-23T00:26:17;93527.03;;;9.91;100.00
39739;BME280;25422;48.286;8.484;2023-04-23T00:28:42;93534.59;;;9.86;100.00
39739;BME280;25422;48.286;8.484;2023-04-23T00:31:08;93529.28;;;9.79;100.00
39739;BME280;25422;48.286;8.484;2023-04-23T00:33:35;93530.56;;;9.68;100.00
39739;BME280;25422;48.286;8.484;2023-04-23T00:36:00;93533.91;;;9.62;100.00
39739;BME280;25422;48.286;8.484;2023-04-23T00:38:26;93529.56;;;9.54;100.00
39739;BME280;25422;48.286;8.484;2023-04-23T00:40:51;93536.69;;;9.45;100.00
39739;BME280;25422;48.286;8.484;2023-04-23T00:43:17;93530.53;;;9.38;100.00
39739;BME280;25422;48.286;8.484;2023-04-23T00:45:43;93531.06;;;9.34;100.00
39739;BME280;25422;48.286;8.484;2023-04-23T00:48:10;93532.25;;;9.31;100.00
39739;BME280;25422;48.286;8.484;2023-04-23T00:50:35;93538.69;;;9.20;100.00
39739;BME280;25422;48.286;8.484;2023-04-23T00:53:02;93545.44;;;9.15;100.00
39739;BME280;25422;48.286;8.484;2023-04-23T00:55:28;93542.53;;;9.09;100.00
39739;BME280;25422;48.286;8.484;2023-04-23T00:57:54;93536.41;;;9.02;100.00
39739;BME280;25422;48.286;8.484;2023-04-23T01:00:19;93538.72;;;8.97;100.00
39739;BME280;25422;48.286;8.484;2023-04-23T01:02:46;93534.19;;;8.91;100.00
39739;BME280;25422;48.286;8.484;2023-04-23T01:05:13;93538.13;;;8.87;100.00
39739;BME280;25422;48.286;8.484;2023-04-23T01:07:40;93536.69;;;8.84;100.00
39739;BME280;25422;48.286;8.484;2023-04-23T01:10:08;93537.22;;;8.80;100.00
39739;BME280;25422;48.286;8.484;2023-04-23T01:12:34;93536.31;;;8.72;100.00
39739;BME280;25422;48.286;8.484;2023-04-23T01:14:59;93535.84;;;8.69;100.00
39739;BME280;25422;48.286;8.484;2023-04-23T01:17:25;93528.19;;;8.67;100.00
39739;BME280;25422;48.286;8.484;2023-04-23T01:19:51;93522.16;;;8.67;100.00
39739;BME280;25422;48.286;8.484;2023-04-23T01:22:17;93517.47;;;8.62;100.00
39739;BME280;25422;48.286;8.484;2023-04-23T01:24:42;93530.03;;;8.58;100.00
39739;BME280;25422;48.286;8.484;2023-04-23T01:27:09;93544.88;;;8.58;100.00
39739;BME280;25422;48.286;8.484;2023-04-23T01:29:36;93549.72;;;8.61;100.00
39739;BME280;25422;48.286;8.484;2023-04-23T01:32:02;93546.81;;;8.56;100.00
39739;BME280;25422;48.286;8.484;2023-04-23T01:34:29;93539.34;;;8.53;100.00
39739;BME280;25422;48.286;8.484;2023-04-23T01:36:56;93533.97;;;8.54;100.00
39739;BME280;25422;48.286;8.484;2023-04-23T01:39:22;93540.00;;;8.55;100.00
39739;BME280;25422;48.286;8.484;2023-04-23T01:41:48;93539.34;;;8.53;100.00
39739;BME280;25422;48.286;8.484;2023-04-23T01:44:14;93543.94;;;8.51;100.00
39739;BME280;25422;48.286;8.484;2023-04-23T01:46:40;93537.91;;;8.50;100.00
39739;BME280;25422;48.286;8.484;2023-04-23T01:49:06;93541.16;;;8.52;100.00
39739;BME280;25422;48.286;8.484;2023-04-23T01:51:31;93537.09;;;8.50;100.00
39739;BME280;25422;48.286;8.484;2023-04-23T01:53:56;93531.56;;;8.44;100.00
39739;BME280;25422;48.286;8.484;2023-04-23T01:56:27;93537.63;;;8.45;100.00
39739;BME280;25422;48.286;8.484;2023-04-23T01:58:53;93534.50;;;8.50;100.00
39739;BME280;25422;48.286;8.484;2023-04-23T02:01:18;93527.03;;;8.47;100.00
39739;BME280;25422;48.286;8.484;2023-04-23T02:03:45;93530.25;;;8.49;100.00
39739;BME280;25422;48.286;8.484;2023-04-23T02:06:11;93536.63;;;8.46;100.00
39739;BME280;25422;48.286;8.484;2023-04-23T02:08:37;93532.09;;;8.40;100.00
39739;BME280;25422;48.286;8.484;2023-04-23T02:11:04;93525.25;;;8.39;100.00
39739;BME280;25422;48.286;8.484;2023-04-23T02:13:30;93529.66;;;8.38;100.00
39739;BME280;25422;48.286;8.484;2023-04-23T02:15:56;93539.06;;;8.39;100.00
39739;BME280;25422;48.286;8.484;2023-04-23T02:18:21;93540.41;;;8.35;100.00
39739;BME280;25422;48.286;8.484;2023-04-23T02:20:46;93542.03;;;8.36;100.00
39739;BME280;25422;48.286;8.484;2023-04-23T02:23:12;93542.50;;;8.40;100.00
39739;BME280;25422;48.286;8.484;2023-04-23T02:25:37;93540.06;;;8.38;100.00
39739;BME280;25422;48.286;8.484;2023-04-23T02:28:04;93545.28;;;8.38;100.00
39739;BME280;25422;48.286;8.484;2023-04-23T02:30:35;93522.81;;;8.37;100.00
39739;BME280;25422;48.286;8.484;2023-04-23T02:33:01;93530.16;;;8.34;100.00
39739;BME280;25422;48.286;8.484;2023-04-23T02:35:26;93525.78;;;8.34;100.00
39739;BME280;25422;48.286;8.484;2023-04-23T02:37:52;93526.09;;;8.31;100.00
39739;BME280;25422;48.286;8.484;2023-04-23T02:40:19;93512.59;;;8.27;100.00
39739;BME280;25422;48.286;8.484;2023-04-23T02:42:44;93525.47;;;8.29;100.00
39739;BME280;25422;48.286;8.484;2023-04-23T02:45:10;93524.19;;;8.25;100.00
39739;BME280;25422;48.286;8.484;2023-04-23T02:47:36;93522.56;;;8.24;100.00
39739;BME280;25422;48.286;8.484;2023-04-23T02:50:02;93526.44;;;8.28;100.00
39739;BME280;25422;48.286;8.484;2023-04-23T02:52:30;93522.56;;;8.24;100.00
39739;BME280;25422;48.286;8.484;2023-04-23T02:54:55;93520.91;;;8.23;100.00
39739;BME280;25422;48.286;8.484;2023-04-23T02:57:21;93518.38;;;8.15;100.00
39739;BME280;25422;48.286;8.484;2023-04-23T02:59:47;93521.78;;;8.15;100.00
39739;BME280;25422;48.286;8.484;2023-04-23T03:02:14;93516.44;;;8.08;100.00
39739;BME280;25422;48.286;8.484;2023-04-23T03:04:40;93522.69;;;7.99;100.00
39739;BME280;25422;48.286;8.484;2023-04-23T03:07:05;93519.41;;;7.97;100.00
39739;BME280;25422;48.286;8.484;2023-04-23T03:09:31;93529.53;;;7.92;100.00
39739;BME280;25422;48.286;8.484;2023-04-23T03:11:56;93525.63;;;7.88;100.00
39739;BME280;25422;48.286;8.484;2023-04-23T03:14:23;93533.00;;;7.84;100.00
39739;BME280;25422;48.286;8.484;2023-04-23T03:16:48;93530.44;;;7.76;100.00
39739;BME280;25422;48.286;8.484;2023-04-23T03:19:14;93530.06;;;7.79;100.00
39739;BME280;25422;48.286;8.484;2023-04-23T03:21:40;93525.88;;;7.70;100.00
39739;BME280;25422;48.286;8.484;2023-04-23T03:24:06;93527.69;;;7.69;100.00
39739;BME280;25422;48.286;8.484;2023-04-23T03:26:32;93523.59;;;7.75;100.00
39739;BME280;25422;48.286;8.484;2023-04-23T03:28:59;93528.97;;;7.73;100.00
39739;BME280;25422;48.286;8.484;2023-04-23T03:31:24;93545.25;;;7.67;100.00
39739;BME280;25422;48.286;8.484;2023-04-23T03:33:51;93545.25;;;7.59;100.00
39739;BME280;25422;48.286;8.484;2023-04-23T03:36:22;93538.44;;;7.58;100.00
39739;BME280;25422;48.286;8.484;2023-04-23T03:38:48;93540.09;;;7.51;100.00
39739;BME280;25422;48.286;8.484;2023-04-23T03:41:15;93544.97;;;7.46;100.00
39739;BME280;25422;48.286;8.484;2023-04-23T03:43:41;93534.09;;;7.42;100.00
39739;BME280;25422;48.286;8.484;2023-04-23T03:46:19;93542.38;;;7.37;100.00
39739;BME280;25422;48.286;8.484;2023-04-23T03:48:45;93537.34;;;7.36;100.00
39739;BME280;25422;48.286;8.484;2023-04-23T03:51:18;93537.97;;;7.38;100.00
39739;BME280;25422;48.286;8.484;2023-04-23T03:53:47;93534.91;;;7.34;100.00
39739;BME280;25422;48.286;8.484;2023-04-23T03:56:41;93531.03;;;7.30;100.00
39739;BME280;25422;48.286;8.484;2023-04-23T03:59:15;93540.75;;;7.28;100.00
39739;BME280;25422;48.286;8.484;2023-04-23T04:01:42;93543.53;;;7.26;100.00
39739;BME280;25422;48.286;8.484;2023-04-23T04:04:08;93534.59;;;7.29;100.00
39739;BME280;25422;48.286;8.484;2023-04-23T04:06:33;93531.47;;;7.34;100.00
39739;BME280;25422;48.286;8.484;2023-04-23T04:08:58;93532.31;;;7.34;100.00
39739;BME280;25422;48.286;8.484;2023-04-23T04:11:24;93525.31;;;7.35;100.00
39739;BME280;25422;48.286;8.484;2023-04-23T04:13:50;93520.75;;;7.37;100.00
39739;BME280;25422;48.286;8.484;2023-04-23T04:16:16;93515.72;;;7.43;100.00
39739;BME280;25422;48.286;8.484;2023-04-23T04:18:41;93519.91;;;7.45;100.00
39739;BME280;25422;48.286;8.484;2023-04-23T04:21:06;93520.06;;;7.51;100.00
39739;BME280;25422;48.286;8.484;2023-04-23T04:23:32;93530.00;;;7.48;100.00
39739;BME280;25422;48.286;8.484;2023-04-23T04:25:58;93527.41;;;7.48;100.00
39739;BME280;25422;48.286;8.484;2023-04-23T04:28:24;93527.38;;;7.56;100.00
39739;BME280;25422;48.286;8.484;2023-04-23T04:30:51;93532.94;;;7.45;100.00
39739;BME280;25422;48.286;8.484;2023-04-23T04:33:18;93534.56;;;7.46;100.00
39739;BME280;25422;48.286;8.484;2023-04-23T04:35:45;93529.69;;;7.42;100.00
39739;BME280;25422;48.286;8.484;2023-04-23T04:38:13;93534.41;;;7.39;100.00
39739;BME280;25422;48.286;8.484;2023-04-23T04:40:39;93531.19;;;7.37;100.00
39739;BME280;25422;48.286;8.484;2023-04-23T04:43:05;93538.31;;;7.35;100.00
39739;BME280;25422;48.286;8.484;2023-04-23T04:45:30;93538.47;;;7.41;100.00
39739;BME280;25422;48.286;8.484;2023-04-23T04:47:56;93536.03;;;7.40;100.00
39739;BME280;25422;48.286;8.484;2023-04-23T04:50:22;93532.28;;;7.42;100.00
39739;BME280;25422;48.286;8.484;2023-04-23T04:52:47;93528.03;;;7.50;100.00
39739;BME280;25422;48.286;8.484;2023-04-23T04:55:13;93529.31;;;7.62;100.00
39739;BME280;25422;48.286;8.484;2023-04-23T04:57:38;93527.03;;;7.59;100.00
39739;BME280;25422;48.286;8.484;2023-04-23T05:00:23;93527.84;;;7.59;100.00
39739;BME280;25422;48.286;8.484;2023-04-23T05:02:49;93518.06;;;7.70;100.00
39739;BME280;25422;48.286;8.484;2023-04-23T05:05:15;93523.59;;;7.75;100.00
39739;BME280;25422;48.286;8.484;2023-04-23T05:07:41;93522.44;;;7.78;100.00
39739;BME280;25422;48.286;8.484;2023-04-23T05:10:07;93519.63;;;7.87;100.00
39739;BME280;25422;48.286;8.484;2023-04-23T05:12:32;93528.16;;;8.04;100.00
39739;BME280;25422;48.286;8.484;2023-04-23T05:14:58;93533.94;;;8.23;100.00
39739;BME280;25422;48.286;8.484;2023-04-23T05:17:23;93527.19;;;8.37;100.00
39739;BME280;25422;48.286;8.484;2023-04-23T05:19:48;93520.38;;;8.67;100.00
39739;BME280;25422;48.286;8.484;2023-04-23T05:22:14;93533.22;;;8.92;100.00
39739;BME280;25422;48.286;8.484;2023-04-23T05:24:39;93533.22;;;8.92;100.00
39739;BME280;25422;48.286;8.484;2023-04-23T05:27:05;93529.34;;;8.88;100.00
39739;BME280;25422;48.286;8.484;2023-04-23T05:29:30;93541.22;;;8.67;100.00
39739;BME280;25422;48.286;8.484;2023-04-23T05:31:56;93540.69;;;8.49;100.00
39739;BME280;25422;48.286;8.484;2023-04-23T05:34:21;93531.41;;;8.46;100.00
39739;BME280;25422;48.286;8.484;2023-04-23T05:36:47;93531.25;;;8.39;100.00
39739;BME280;25422;48.286;8.484;2023-04-23T05:39:12;93536.13;;;8.51;100.00
39739;BME280;25422;48.286;8.484;2023-04-23T05:41:37;93528.88;;;8.61;100.00
39739;BME280;25422;48.286;8.484;2023-04-23T05:44:03;93528.88;;;8.61;100.00
39739;BME280;25422;48.286;8.484;2023-04-23T05:46:28;93528.75;;;8.77;100.00
39739;BME280;25422;48.286;8.484;2023-04-23T05:48:54;93526.09;;;8.86;100.00
39739;BME280;25422;48.286;8.484;2023-04-23T05:51:19;93528.19;;;8.67;100.00
39739;BME280;25422;48.286;8.484;2023-04-23T05:53:45;93517.28;;;8.64;100.00
39739;BME280;25422;48.286;8.484;2023-04-23T05:56:11;93522.38;;;8.80;100.00
39739;BME280;25422;48.286;8.484;2023-04-23T05:58:36;93530.50;;;8.85;100.00
39739;BME280;25422;48.286;8.484;2023-04-23T06:01:03;93533.34;;;8.99;100.00
39739;BME280;25422;48.286;8.484;2023-04-23T06:03:28;93527.78;;;9.17;100.00
39739;BME280;25422;48.286;8.484;2023-04-23T06:05:54;93521.88;;;9.23;100.00
39739;BME280;25422;48.286;8.484;2023-04-23T06:08:19;93523.97;;;9.72;100.00
39739;BME280;25422;48.286;8.484;2023-04-23T06:10:45;93527.69;;;9.93;100.00
39739;BME280;25422;48.286;8.484;2023-04-23T06:13:11;93526.44;;;10.40;100.00
39739;BME280;25422;48.286;8.484;2023-04-23T06:15:36;93522.00;;;10.99;100.00
39739;BME280;25422;48.286;8.484;2023-04-23T06:18:02;93528.44;;;12.17;100.00
39739;BME280;25422;48.286;8.484;2023-04-23T06:20:28;93522.66;;;13.23;100.00
39739;BME280;25422;48.286;8.484;2023-04-23T06:22:54;93524.91;;;14.32;100.00
39739;BME280;25422;48.286;8.484;2023-04-23T06:25:19;93526.47;;;14.46;100.00
39739;BME280;25422;48.286;8.484;2023-04-23T06:27:45;93519.78;;;14.89;100.00
39739;BME280;25422;48.286;8.484;2023-04-23T06:30:17;93525.53;;;15.37;95.89
39739;BME280;25422;48.286;8.484;2023-04-23T06:32:43;93524.03;;;16.54;81.50
39739;BME280;25422;48.286;8.484;2023-04-23T06:35:08;93524.47;;;16.81;74.07
39739;BME280;25422;48.286;8.484;2023-04-23T06:37:34;93516.81;;;17.33;71.05
39739;BME280;25422;48.286;8.484;2023-04-23T06:40:00;93512.69;;;17.26;69.69
39739;BME280;25422;48.286;8.484;2023-04-23T06:42:25;93511.47;;;18.23;63.23
39739;BME280;25422;48.286;8.484;2023-04-23T06:45:26;93505.50;;;17.80;62.24
39739;BME280;25422;48.286;8.484;2023-04-23T06:47:51;93511.97;;;19.18;58.75
39739;BME280;25422;48.286;8.484;2023-04-23T06:50:17;93511.59;;;19.61;52.55
39739;BME280;25422;48.286;8.484;2023-04-23T06:52:42;93501.97;;;20.11;51.52
39739;BME280;25422;48.286;8.484;2023-04-23T06:55:08;93502.28;;;20.14;49.52
39739;BME280;25422;48.286;8.484;2023-04-23T06:57:34;93507.16;;;19.49;49.33
39739;BME280;25422;48.286;8.484;2023-04-23T07:00:00;93499.28;;;18.10;53.93
39739;BME280;25422;48.286;8.484;2023-04-23T07:02:31;93500.69;;;16.50;59.73
39739;BME280;25422;48.286;8.484;2023-04-23T07:04:56;93499.03;;;16.68;59.92
39739;BME280;25422;48.286;8.484;2023-04-23T07:07:22;93493.22;;;16.78;60.96
39739;BME280;25422;48.286;8.484;2023-04-23T07:09:47;93488.38;;;17.95;54.83
39739;BME280;25422;48.286;8.484;2023-04-23T07:12:12;93488.00;;;17.56;58.29
39739;BME280;25422;48.286;8.484;2023-04-23T07:14:38;93485.56;;;16.58;59.58
39739;BME280;25422;48.286;8.484;2023-04-23T07:17:03;93477.91;;;16.38;61.45
39739;BME280;25422;48.286;8.484;2023-04-23T07:19:29;93479.47;;;17.30;60.57
39739;BME280;25422;48.286;8.484;2023-04-23T07:21:54;93473.75;;;17.45;57.74
39739;BME280;25422;48.286;8.484;2023-04-23T07:24:20;93479.38;;;16.33;62.40
39739;BME280;25422;48.286;8.484;2023-04-23T07:26:45;93478.00;;;16.31;59.75
39739;BME280;25422;48.286;8.484;2023-04-23T07:29:11;93483.31;;;16.92;59.62
39739;BME280;25422;48.286;8.484;2023-04-23T07:31:38;93485.53;;;16.46;60.23
39739;BME280;25422;48.286;8.484;2023-04-23T07:34:05;93479.19;;;15.98;60.87
39739;BME280;25422;48.286;8.484;2023-04-23T07:36:31;93485.03;;;15.31;65.35
39739;BME280;25422;48.286;8.484;2023-04-23T07:38:56;93480.19;;;16.34;61.61
39739;BME280;25422;48.286;8.484;2023-04-23T07:41:21;93469.56;;;16.83;59.65
39739;BME280;25422;48.286;8.484;2023-04-23T07:43:47;93477.03;;;16.25;63.92
39739;BME280;25422;48.286;8.484;2023-04-23T07:46:12;93469.00;;;16.50;65.62
39739;BME280;25422;48.286;8.484;2023-04-23T07:48:39;93467.41;;;17.34;59.17
39739;BME280;25422;48.286;8.484;2023-04-23T07:51:04;93462.84;;;17.65;61.74
39739;BME280;25422;48.286;8.484;2023-04-23T07:53:30;93467.63;;;17.44;59.24
39739;BME280;25422;48.286;8.484;2023-04-23T07:55:56;93469.38;;;19.42;53.40
39739;BME280;25422;48.286;8.484;2023-04-23T07:58:23;93465.50;;;18.29;57.56
39739;BME280;25422;48.286;8.484;2023-04-23T08:00:48;93473.84;;;17.26;56.74
39739;BME280;25422;48.286;8.484;2023-04-23T08:03:14;93471.97;;;17.03;59.02
39739;BME280;25422;48.286;8.484;2023-04-23T08:05:39;93464.09;;;17.98;55.89
39739;BME280;25422;48.286;8.484;2023-04-23T08:08:06;93458.91;;;18.44;56.02
39739;BME280;25422;48.286;8.484;2023-04-23T08:10:32;93453.53;;;19.64;51.10
39739;BME280;25422;48.286;8.484;2023-04-23T08:12:57;93453.75;;;21.18;48.69
39739;BME280;25422;48.286;8.484;2023-04-23T08:15:23;93439.75;;;20.51;46.60
39739;BME280;25422;48.286;8.484;2023-04-23T08:17:48;93445.84;;;20.46;46.25
39739;BME280;25422;48.286;8.484;2023-04-23T08:20:14;93438.44;;;20.26;47.63
39739;BME280;25422;48.286;8.484;2023-04-23T08:22:39;93435.16;;;19.80;48.12
39739;BME280;25422;48.286;8.484;2023-04-23T08:25:05;93436.47;;;17.11;54.38
39739;BME280;25422;48.286;8.484;2023-04-23T08:27:30;93440.56;;;15.60;63.09
39739;BME280;25422;48.286;8.484;2023-04-23T08:29:56;93440.84;;;15.33;68.09
39739;BME280;25422;48.286;8.484;2023-04-23T08:32:21;93440.47;;;14.79;74.22
39739;BME280;25422;48.286;8.484;2023-04-23T08:34:47;93438.22;;;14.44;84.41
39739;BME280;25422;48.286;8.484;2023-04-23T08:37:12;93430.47;;;15.57;75.88
39739;BME280;25422;48.286;8.484;2023-04-23T08:39:37;93431.81;;;16.03;70.30
39739;BME280;25422;48.286;8.484;2023-04-23T08:42:36;93427.16;;;16.35;68.12
39739;BME280;25422;48.286;8.484;2023-04-23T08:45:03;93435.78;;;16.73;62.03
39739;BME280;25422;48.286;8.484;2023-04-23T08:47:29;93435.59;;;16.86;60.06
39739;BME280;25422;48.286;8.484;2023-04-23T08:49:58;93437.91;;;16.52;63.02
39739;BME280;25422;48.286;8.484;2023-04-23T08:52:32;93436.97;;;15.98;66.03
39739;BME280;25422;48.286;8.484;2023-04-23T08:54:59;93438.22;;;15.33;66.66
39739;BME280;25422;48.286;8.484;2023-04-23T08:57:25;93426.84;;;16.44;63.77
39739;BME280;25422;48.286;8.484;2023-04-23T08:59:51;93433.59;;;16.40;59.49
39739;BME280;25422;48.286;8.484;2023-04-23T09:02:17;93438.16;;;16.63;61.45
39739;BME280;25422;48.286;8.484;2023-04-23T09:04:46;93433.38;;;17.14;59.83
39739;BME280;25422;48.286;8.484;2023-04-23T09:07:12;93426.00;;;16.62;59.25
39739;BME280;25422;48.286;8.484;2023-04-23T09:09:40;93424.63;;;17.84;56.40
39739;BME280;25422;48.286;8.484;2023-04-23T09:12:06;93426.84;;;16.86;58.16
39739;BME280;25422;48.286;8.484;2023-04-23T09:14:33;93421.53;;;18.28;54.31
39739;BME280;25422;48.286;8.484;2023-04-23T09:16:59;93424.50;;;18.03;53.59
39739;BME280;25422;48.286;8.484;2023-04-23T09:19:25;93417.47;;;17.85;54.43
39739;BME280;25422;48.286;8.484;2023-04-23T09:21:56;93413.84;;;17.39;55.80
39739;BME280;25422;48.286;8.484;2023-04-23T09:24:22;93405.38;;;16.82;57.95
39739;BME280;25422;48.286;8.484;2023-04-23T09:26:50;93405.56;;;17.23;55.77
39739;BME280;25422;48.286;8.484;2023-04-23T09:29:17;93401.53;;;17.09;57.85
39739;BME280;25422;48.286;8.484;2023-04-23T09:31:47;93401.97;;;16.94;58.39
39739;BME280;25422;48.286;8.484;2023-04-23T09:34:18;93393.03;;;17.42;57.46
39739;BME280;25422;48.286;8.484;2023-04-23T09:36:45;93397.88;;;17.22;57.80
39739;BME280;25422;48.286;8.484;2023-04-23T09:39:13;93386.94;;;16.94;59.73
39739;BME280;25422;48.286;8.484;2023-04-23T09:41:38;93381.38;;;16.11;61.96
39739;BME280;25422;48.286;8.484;2023-04-23T09:44:04;93372.59;;;16.17;63.73
39739;BME280;25422;48.286;8.484;2023-04-23T09:46:36;93377.53;;;17.22;63.94
39739;BME280;25422;48.286;8.484;2023-04-23T09:49:03;93380.59;;;16.83;62.05
39739;BME280;25422;48.286;8.484;2023-04-23T09:51:30;93373.16;;;16.92;61.74
39739;BME280;25422;48.286;8.484;2023-04-23T09:53:56;93370.22;;;16.82;63.81
39739;BME280;25422;48.286;8.484;2023-04-23T09:56:23;93361.16;;;16.24;65.93
39739;BME280;25422;48.286;8.484;2023-04-23T09:58:48;93363.41;;;15.52;66.00
39739;BME280;25422;48.286;8.484;2023-04-23T10:01:14;93354.81;;;15.76;68.24
39739;BME280;25422;48.286;8.484;2023-04-23T10:03:43;93353.94;;;16.31;66.08
39739;BME280;25422;48.286;8.484;2023-04-23T10:06:14;93358.25;;;16.56;65.19
39739;BME280;25422;48.286;8.484;2023-04-23T10:08:40;93346.78;;;16.62;63.50
39739;BME280;25422;48.286;8.484;2023-04-23T10:11:06;93346.97;;;16.91;65.40
39739;BME280;25422;48.286;8.484;2023-04-23T10:13:33;93335.59;;;16.48;65.07
39739;BME280;25422;48.286;8.484;2023-04-23T10:16:00;93335.78;;;16.89;65.11
39739;BME280;25422;48.286;8.484;2023-04-23T10:18:29;93336.97;;;16.39;69.30
39739;BME280;25422;48.286;8.484;2023-04-23T10:20:57;93332.31;;;16.10;65.95
39739;BME280;25422;48.286;8.484;2023-04-23T10:23:22;93334.53;;;16.37;64.83
39739;BME280;25422;48.286;8.484;2023-04-23T10:25:49;93328.53;;;15.88;72.72
39739;BME280;25422;48.286;8.484;2023-04-23T10:28:18;93339.91;;;15.70;76.04
39739;BME280;25422;48.286;8.484;2023-04-23T10:30:52;93341.34;;;15.84;75.25
39739;BME280;25422;48.286;8.484;2023-04-23T10:33:19;93347.50;;;15.78;76.53
39739;BME280;25422;48.286;8.484;2023-04-23T10:35:46;93331.75;;;15.71;75.59
39739;BME280;25422;48.286;8.484;2023-04-23T10:38:13;93329.53;;;15.68;76.12
39739;BME280;25422;48.286;8.484;2023-04-23T10:40:43;93333.94;;;15.74;78.46
39739;BME280;25422;48.286;8.484;2023-04-23T10:43:10;93334.38;;;15.34;79.78
39739;BME280;25422;48.286;8.484;2023-04-23T10:45:36;93337.25;;;15.14;83.19
39739;BME280;25422;48.286;8.484;2023-04-23T10:48:02;93333.16;;;15.18;82.21
39739;BME280;25422;48.286;8.484;2023-04-23T10:50:29;93327.34;;;14.91;85.94
39739;BME280;25422;48.286;8.484;2023-04-23T10:52:56;93330.44;;;15.06;88.16
39739;BME280;25422;48.286;8.484;2023-04-23T10:55:31;93335.16;;;14.79;86.78
39739;BME280;25422;48.286;8.484;2023-04-23T10:57:57;93330.44;;;14.81;89.07
39739;BME280;25422;48.286;8.484;2023-04-23T11:00:24;93330.16;;;15.14;85.35
39739;BME280;25422;48.286;8.484;2023-04-23T11:02:49;93326.63;;;15.39;84.15
39739;BME280;25422;48.286;8.484;2023-04-23T11:05:15;93319.47;;;15.83;87.79
39739;BME280;25422;48.286;8.484;2023-04-23T11:07:41;93315.28;;;16.37;80.61
39739;BME280;25422;48.286;8.484;2023-04-23T11:10:16;93303.13;;;16.71;82.35
39739;BME280;25422;48.286;8.484;2023-04-23T11:12:43;93307.66;;;16.82;77.13
39739;BME280;25422;48.286;8.484;2023-04-23T11:15:13;93297.63;;;16.61;73.76
39739;BME280;25422;48.286;8.484;2023-04-23T11:22:41;93300.03;;;16.62;76.81
39739;BME280;25422;48.286;8.484;2023-04-23T11:25:12;93295.56;;;16.63;70.97
39739;BME280;25422;48.286;8.484;2023-04-23T11:27:42;93284.31;;;16.67;67.67
39739;BME280;25422;48.286;8.484;2023-04-23T11:30:13;93287.53;;;18.10;67.78
39739;BME280;25422;48.286;8.484;2023-04-23T11:32:40;93280.72;;;18.14;65.21
39739;BME280;25422;48.286;8.484;2023-04-23T11:35:06;93273.56;;;18.15;60.88
39739;BME280;25422;48.286;8.484;2023-04-23T11:37:38;93266.97;;;20.08;54.83
39739;BME280;25422;48.286;8.484;2023-04-23T11:40:09;93263.28;;;20.69;52.41
39739;BME280;25422;48.286;8.484;2023-04-23T11:42:48;93259.19;;;20.61;47.48
39739;BME280;25422;48.286;8.484;2023-04-23T11:47:44;93260.34;;;21.08;49.07
39739;BME280;25422;48.286;8.484;2023-04-23T11:50:15;93245.38;;;21.45;47.54
39739;BME280;25422;48.286;8.484;2023-04-23T11:52:42;93242.63;;;21.93;45.36
39739;BME280;25422;48.286;8.484;2023-04-23T11:55:08;93244.91;;;21.10;48.36
39739;BME280;25422;48.286;8.484;2023-04-23T11:57:35;93241.28;;;19.64;50.34
39739;BME280;25422;48.286;8.484;2023-04-23T12:00:14;93230.16;;;19.67;49.52
39739;BME280;25422;48.286;8.484;2023-04-23T12:05:22;93236.50;;;17.69;56.51
39739;BME280;25422;48.286;8.484;2023-04-23T12:07:51;93230.53;;;18.53;53.83
39739;BME280;25422;48.286;8.484;2023-04-23T12:10:17;93226.94;;;19.65;49.81
39739;BME280;25422;48.286;8.484;2023-04-23T12:12:43;93223.13;;;18.56;50.34
39739;BME280;25422;48.286;8.484;2023-04-23T12:15:09;93223.88;;;18.34;52.40
39739;BME280;25422;48.286;8.484;2023-04-23T12:17:34;93228.00;;;17.96;54.27
39739;BME280;25422;48.286;8.484;2023-04-23T12:20:03;93216.31;;;17.51;56.80
39739;BME280;25422;48.286;8.484;2023-04-23T12:22:30;93210.59;;;17.42;60.38
39739;BME280;25422;48.286;8.484;2023-04-23T12:24:55;93215.69;;;17.32;60.87
39739;BME280;25422;48.286;8.484;2023-04-23T12:27:21;93194.81;;;18.05;57.19
39739;BME280;25422;48.286;8.484;2023-04-23T12:29:47;93200.22;;;17.81;57.71
39739;BME280;25422;48.286;8.484;2023-04-23T12:32:14;93205.31;;;17.01;58.22
39739;BME280;25422;48.286;8.484;2023-04-23T12:34:56;93195.78;;;18.33;52.57
39739;BME280;25422;48.286;8.484;2023-04-23T12:37:27;93189.59;;;20.27;50.49
39739;BME280;25422;48.286;8.484;2023-04-23T12:39:53;93183.53;;;21.22;46.59
39739;BME280;25422;48.286;8.484;2023-04-23T12:42:21;93181.03;;;21.63;41.74
39739;BME280;25422;48.286;8.484;2023-04-23T12:44:46;93177.78;;;21.51;42.32
39739;BME280;25422;48.286;8.484;2023-04-23T12:47:12;93170.16;;;21.01;42.20
39739;BME280;25422;48.286;8.484;2023-04-23T12:49:44;93172.81;;;20.59;42.71
39739;BME280;25422;48.286;8.484;2023-04-23T12:52:11;93168.09;;;19.46;43.43
39739;BME280;25422;48.286;8.484;2023-04-23T12:54:38;93176.91;;;18.85;46.66
39739;BME280;25422;48.286;8.484;2023-04-23T12:57:10;93175.19;;;18.91;46.50
39739;BME280;25422;48.286;8.484;2023-04-23T12:59:36;93167.09;;;19.25;45.20
39739;BME280;25422;48.286;8.484;2023-04-23T13:02:02;93168.19;;;19.07;44.77
39739;BME280;25422;48.286;8.484;2023-04-23T13:04:30;93162.06;;;19.24;45.28
39739;BME280;25422;48.286;8.484;2023-04-23T13:06:55;93156.47;;;19.03;44.80
39739;BME280;25422;48.286;8.484;2023-04-23T13:09:21;93152.72;;;18.60;45.35